createdAt,value
2016-10-25T00:00:32.375Z,8.89
2016-10-25T00:01:32.455Z,8.86
2016-10-25T00:02:32.450Z,8.9
2016-10-25T00:03:32.422Z,8.86
2016-10-25T00:04:32.830Z,8.9
2016-10-25T00:05:32.315Z,8.94
2016-10-25T00:06:32.479Z,8.87
2016-10-25T00:07:32.474Z,8.89
2016-10-25T00:08:32.357Z,8.87
2016-10-25T00:09:32.518Z,8.85
2016-10-25T00:10:32.582Z,8.87
2016-10-25T00:11:32.421Z,8.89
2016-10-25T00:12:32.461Z,8.82
2016-10-25T00:13:32.428Z,8.82
2016-10-25T00:14:32.424Z,8.92
2016-10-25T00:15:32.379Z,8.87
2016-10-25T00:16:32.492Z,8.8
2016-10-25T00:17:32.423Z,8.87
2016-10-25T00:18:32.471Z,8.89
2016-10-25T00:19:32.458Z,8.87
2016-10-25T00:20:32.575Z,8.87
2016-10-25T00:21:32.389Z,8.85
2016-10-25T00:22:32.528Z,8.79
2016-10-25T00:23:32.513Z,8.86
2016-10-25T00:24:32.465Z,8.8
2016-10-25T00:25:32.515Z,8.89
2016-10-25T00:26:32.532Z,8.82
2016-10-25T00:27:32.455Z,8.86
2016-10-25T00:28:32.376Z,8.82
2016-10-25T00:29:32.459Z,8.76
2016-10-25T00:30:32.476Z,8.76
2016-10-25T00:31:32.445Z,8.85
2016-10-25T00:32:32.466Z,8.83
2016-10-25T00:33:32.536Z,8.87
2016-10-25T00:34:32.515Z,8.86
2016-10-25T00:35:32.503Z,8.83
2016-10-25T00:36:32.716Z,8.82
2016-10-25T00:37:32.509Z,8.8
2016-10-25T00:38:32.550Z,8.83
2016-10-25T00:39:32.603Z,8.79
2016-10-25T00:40:32.518Z,8.74
2016-10-25T00:41:32.594Z,8.8
2016-10-25T00:42:32.496Z,8.86
2016-10-25T00:43:32.504Z,8.8
2016-10-25T00:44:32.545Z,8.83
2016-10-25T00:45:32.426Z,8.92
2016-10-25T00:46:32.497Z,8.92
2016-10-25T00:47:32.586Z,8.87
2016-10-25T00:48:32.544Z,8.89
2016-10-25T00:49:32.487Z,8.87
2016-10-25T00:50:32.624Z,8.89
2016-10-25T00:51:32.549Z,8.95
2016-10-25T00:52:32.656Z,8.98
2016-10-25T00:53:32.552Z,8.9
2016-10-25T00:54:32.528Z,8.92
2016-10-25T00:55:32.603Z,8.92
2016-10-25T00:56:32.508Z,8.9
2016-10-25T00:57:32.517Z,8.9
2016-10-25T00:58:32.559Z,8.94
2016-10-25T00:59:32.526Z,8.94
2016-10-25T01:00:32.584Z,8.97
2016-10-25T01:01:32.749Z,8.94
2016-10-25T01:02:32.608Z,8.85
2016-10-25T01:03:32.626Z,8.98
2016-10-25T01:04:32.641Z,8.89
2016-10-25T01:05:32.524Z,8.95
2016-10-25T01:06:32.574Z,8.9
2016-10-25T01:07:32.564Z,8.9
2016-10-25T01:08:32.739Z,8.9
2016-10-25T01:09:32.580Z,8.87
2016-10-25T01:10:32.652Z,8.92
2016-10-25T01:11:32.630Z,8.97
2016-10-25T01:12:32.530Z,8.97
2016-10-25T01:13:32.596Z,8.97
2016-10-25T01:14:32.624Z,8.92
2016-10-25T01:15:32.654Z,8.95
2016-10-25T01:16:32.548Z,8.97
2016-10-25T01:17:32.511Z,8.9
2016-10-25T01:18:32.598Z,8.94
2016-10-25T01:19:32.681Z,8.9
2016-10-25T01:20:32.613Z,8.94
2016-10-25T01:21:32.638Z,8.92
2016-10-25T01:22:32.554Z,9
2016-10-25T01:23:32.604Z,8.97
2016-10-25T01:24:32.704Z,8.94
2016-10-25T01:25:32.572Z,8.94
2016-10-25T01:26:32.629Z,8.87
2016-10-25T01:27:32.633Z,8.95
2016-10-25T01:28:32.625Z,8.89
2016-10-25T01:29:32.677Z,8.94
2016-10-25T01:30:32.653Z,8.92
2016-10-25T01:31:32.681Z,8.95
2016-10-25T01:32:32.620Z,9
2016-10-25T01:33:32.824Z,8.97
2016-10-25T01:34:32.709Z,8.94
2016-10-25T01:35:32.720Z,8.86
2016-10-25T01:36:32.730Z,8.94
2016-10-25T01:37:32.728Z,8.94
2016-10-25T01:38:32.666Z,8.86
2016-10-25T01:39:32.606Z,8.9
2016-10-25T01:40:32.818Z,8.92
2016-10-25T01:41:32.659Z,8.86
2016-10-25T01:42:32.656Z,8.89
2016-10-25T01:43:32.670Z,8.85
2016-10-25T01:44:32.704Z,8.97
2016-10-25T01:45:32.620Z,8.87
2016-10-25T01:46:32.707Z,8.89
2016-10-25T01:47:32.757Z,8.92
2016-10-25T01:48:32.595Z,8.89
2016-10-25T01:49:32.902Z,8.87
2016-10-25T01:50:32.769Z,8.92
2016-10-25T01:51:32.639Z,8.87
2016-10-25T01:52:32.647Z,8.87
2016-10-25T01:53:32.652Z,8.85
2016-10-25T01:54:32.736Z,8.89
2016-10-25T01:55:32.670Z,8.87
2016-10-25T01:56:32.843Z,8.86
2016-10-25T01:57:32.747Z,8.85
2016-10-25T01:58:32.752Z,8.9
2016-10-25T01:59:32.872Z,8.9
2016-10-25T02:00:32.804Z,8.86
2016-10-25T02:01:32.773Z,9
2016-10-25T02:02:32.724Z,8.97
2016-10-25T02:03:32.715Z,8.86
2016-10-25T02:04:32.773Z,8.9
2016-10-25T02:05:32.873Z,8.94
2016-10-25T02:06:32.757Z,8.87
2016-10-25T02:07:32.767Z,8.9
2016-10-25T02:08:32.774Z,8.89
2016-10-25T02:09:32.819Z,8.86
2016-10-25T02:10:32.728Z,8.89
2016-10-25T02:11:32.784Z,8.86
2016-10-25T02:12:32.944Z,8.94
2016-10-25T02:13:32.821Z,8.85
2016-10-25T02:14:32.741Z,8.83
2016-10-25T02:15:32.801Z,8.86
2016-10-25T02:16:32.843Z,8.77
2016-10-25T02:17:32.786Z,8.86
2016-10-25T02:18:32.728Z,8.94
2016-10-25T02:19:32.734Z,8.9
2016-10-25T02:20:32.806Z,8.86
2016-10-25T02:21:32.902Z,8.86
2016-10-25T02:22:32.803Z,8.89
2016-10-25T02:23:32.744Z,8.94
2016-10-25T02:24:32.816Z,8.85
2016-10-25T02:25:32.782Z,8.87
2016-10-25T02:26:32.847Z,8.82
2016-10-25T02:27:32.786Z,8.89
2016-10-25T02:28:33.105Z,8.87
2016-10-25T02:29:32.798Z,8.89
2016-10-25T02:30:32.873Z,8.89
2016-10-25T02:31:32.869Z,8.92
2016-10-25T02:32:32.835Z,8.92
2016-10-25T02:33:32.873Z,8.79
2016-10-25T02:34:32.813Z,8.82
2016-10-25T02:35:32.808Z,8.74
2016-10-25T02:36:32.858Z,8.74
2016-10-25T02:37:33.041Z,8.8
2016-10-25T02:38:32.778Z,8.79
2016-10-25T02:39:32.868Z,8.82
2016-10-25T02:40:32.836Z,8.74
2016-10-25T02:41:32.904Z,8.92
2016-10-25T02:42:32.896Z,8.92
2016-10-25T02:43:32.845Z,8.82
2016-10-25T02:44:32.890Z,8.8
2016-10-25T02:45:32.831Z,8.77
2016-10-25T02:46:32.832Z,8.71
2016-10-25T02:47:32.811Z,8.74
2016-10-25T02:48:32.932Z,8.74
2016-10-25T02:49:32.873Z,8.82
2016-10-25T02:50:32.969Z,8.77
2016-10-25T02:51:32.848Z,8.77
2016-10-25T02:52:32.785Z,8.8
2016-10-25T02:53:33.003Z,8.82
2016-10-25T02:54:32.875Z,8.85
2016-10-25T02:55:32.799Z,8.8
2016-10-25T02:56:32.944Z,8.79
2016-10-25T02:57:32.898Z,8.79
2016-10-25T02:58:32.894Z,8.74
2016-10-25T02:59:32.875Z,8.71
2016-10-25T03:00:32.996Z,8.71
2016-10-25T03:01:32.899Z,8.76
2016-10-25T03:02:32.845Z,8.76
2016-10-25T03:03:32.811Z,8.72
2016-10-25T03:04:32.924Z,8.68
2016-10-25T03:05:32.878Z,8.69
2016-10-25T03:06:32.940Z,8.69
2016-10-25T03:07:32.929Z,8.69
2016-10-25T03:08:32.921Z,8.72
2016-10-25T03:09:33.082Z,8.71
2016-10-25T03:10:32.945Z,8.67
2016-10-25T03:11:32.988Z,8.71
2016-10-25T03:12:32.857Z,8.62
2016-10-25T03:13:32.910Z,8.67
2016-10-25T03:14:32.876Z,8.65
2016-10-25T03:15:32.961Z,8.69
2016-10-25T03:16:33.100Z,8.62
2016-10-25T03:17:32.937Z,8.64
2016-10-25T03:18:33.008Z,8.65
2016-10-25T03:19:32.926Z,8.65
2016-10-25T03:20:32.959Z,8.64
2016-10-25T03:21:32.982Z,8.62
2016-10-25T03:22:32.894Z,8.57
2016-10-25T03:23:32.982Z,8.62
2016-10-25T03:24:32.903Z,8.62
2016-10-25T03:25:33.143Z,8.64
2016-10-25T03:26:33.004Z,8.67
2016-10-25T03:27:33.023Z,8.68
2016-10-25T03:28:33.045Z,8.65
2016-10-25T03:29:32.994Z,8.68
2016-10-25T03:30:34.488Z,8.69
2016-10-25T03:31:33.069Z,8.69
2016-10-25T03:32:33.104Z,8.77
2016-10-25T03:33:32.986Z,8.77
2016-10-25T03:34:33.017Z,8.67
2016-10-25T03:35:32.990Z,8.61
2016-10-25T03:36:32.954Z,8.6
2016-10-25T03:37:33.082Z,8.58
2016-10-25T03:38:33.001Z,8.6
2016-10-25T03:39:33.069Z,8.6
2016-10-25T03:40:32.924Z,8.68
2016-10-25T03:41:33.165Z,8.69
2016-10-25T03:42:32.991Z,8.74
2016-10-25T03:43:33.051Z,8.67
2016-10-25T03:44:33.097Z,8.65
2016-10-25T03:45:33.030Z,8.71
2016-10-25T03:46:32.952Z,8.61
2016-10-25T03:47:33.092Z,8.61
2016-10-25T03:48:33.153Z,8.72
2016-10-25T03:49:33.009Z,8.6
2016-10-25T03:50:33.089Z,8.67
2016-10-25T03:51:33.025Z,8.61
2016-10-25T03:52:33.033Z,8.61
2016-10-25T03:53:33.123Z,8.65
2016-10-25T03:54:33.042Z,8.62
2016-10-25T03:55:32.957Z,8.64
2016-10-25T03:56:33.122Z,8.68
2016-10-25T03:57:33.199Z,8.69
2016-10-25T03:58:33.053Z,8.64
2016-10-25T03:59:33.131Z,8.79
2016-10-25T04:00:33.077Z,8.64
2016-10-25T04:01:33.064Z,8.71
2016-10-25T04:02:33.145Z,8.76
2016-10-25T04:03:32.965Z,8.76
2016-10-25T04:04:33.334Z,8.68
2016-10-25T04:05:33.090Z,8.72
2016-10-25T04:06:33.040Z,8.72
2016-10-25T04:07:33.096Z,8.61
2016-10-25T04:08:33.070Z,8.61
2016-10-25T04:09:33.093Z,8.64
2016-10-25T04:10:33.066Z,8.64
2016-10-25T04:11:33.069Z,8.65
2016-10-25T04:12:33.180Z,8.61
2016-10-25T04:13:33.128Z,8.61
2016-10-25T04:14:33.074Z,8.61
2016-10-25T04:15:33.143Z,8.6
2016-10-25T04:16:33.096Z,8.71
2016-10-25T04:17:33.172Z,8.72
2016-10-25T04:18:33.175Z,8.65
2016-10-25T04:19:33.066Z,8.67
2016-10-25T04:20:33.323Z,8.77
2016-10-25T04:21:33.113Z,8.65
2016-10-25T04:22:33.187Z,8.64
2016-10-25T04:23:33.135Z,8.64
2016-10-25T04:24:33.144Z,8.69
2016-10-25T04:25:33.295Z,8.71
2016-10-25T04:26:33.117Z,8.64
2016-10-25T04:27:33.192Z,8.6
2016-10-25T04:28:33.074Z,8.72
2016-10-25T04:29:33.181Z,8.64
2016-10-25T04:30:33.241Z,8.69
2016-10-25T04:31:33.054Z,8.61
2016-10-25T04:32:33.177Z,8.61
2016-10-25T04:33:33.089Z,8.65
2016-10-25T04:34:33.081Z,8.6
2016-10-25T04:35:33.234Z,8.61
2016-10-25T04:36:33.270Z,8.65
2016-10-25T04:37:33.182Z,8.64
2016-10-25T04:38:33.229Z,8.61
2016-10-25T04:39:33.163Z,8.6
2016-10-25T04:40:33.233Z,8.61
2016-10-25T04:41:33.201Z,8.69
2016-10-25T04:42:33.236Z,8.62
2016-10-25T04:43:33.231Z,8.71
2016-10-25T04:44:33.252Z,8.64
2016-10-25T04:45:33.246Z,8.67
2016-10-25T04:46:33.264Z,8.65
2016-10-25T04:47:33.122Z,8.69
2016-10-25T04:48:33.173Z,8.74
2016-10-25T04:49:33.265Z,8.62
2016-10-25T04:50:33.187Z,8.71
2016-10-25T04:51:33.224Z,8.6
2016-10-25T04:52:33.375Z,8.64
2016-10-25T04:53:33.229Z,8.62
2016-10-25T04:54:33.199Z,8.68
2016-10-25T04:55:33.277Z,8.65
2016-10-25T04:56:33.178Z,8.6
2016-10-25T04:57:33.294Z,8.64
2016-10-25T04:58:33.281Z,8.61
2016-10-25T04:59:33.257Z,8.54
2016-10-25T05:00:33.180Z,8.61
2016-10-25T05:01:33.234Z,8.61
2016-10-25T05:02:33.255Z,8.54
2016-10-25T05:03:33.300Z,8.62
2016-10-25T05:04:33.309Z,8.68
2016-10-25T05:05:33.212Z,8.65
2016-10-25T05:06:33.271Z,8.69
2016-10-25T05:07:33.313Z,8.68
2016-10-25T05:08:33.442Z,8.6
2016-10-25T05:09:33.317Z,8.57
2016-10-25T05:10:33.244Z,8.6
2016-10-25T05:11:33.196Z,8.68
2016-10-25T05:12:33.289Z,8.61
2016-10-25T05:13:33.405Z,8.6
2016-10-25T05:14:33.349Z,8.6
2016-10-25T05:15:33.297Z,8.65
2016-10-25T05:16:33.324Z,8.62
2016-10-25T05:17:33.330Z,8.64
2016-10-25T05:18:33.317Z,8.68
2016-10-25T05:19:33.319Z,8.61
2016-10-25T05:20:33.299Z,8.64
2016-10-25T05:21:33.291Z,8.61
2016-10-25T05:22:33.277Z,8.6
2016-10-25T05:23:33.425Z,8.68
2016-10-25T05:24:33.434Z,8.65
2016-10-25T05:25:33.414Z,8.65
2016-10-25T05:26:33.400Z,8.69
2016-10-25T05:27:33.367Z,8.69
2016-10-25T05:28:33.303Z,8.65
2016-10-25T05:29:33.377Z,8.65
2016-10-25T05:30:33.603Z,8.64
2016-10-25T05:31:33.314Z,8.72
2016-10-25T05:32:33.333Z,8.65
2016-10-25T05:33:33.390Z,8.67
2016-10-25T05:34:33.459Z,8.64
2016-10-25T05:35:33.333Z,8.68
2016-10-25T05:36:33.361Z,8.69
2016-10-25T05:37:33.406Z,8.68
2016-10-25T05:38:33.317Z,8.64
2016-10-25T05:39:33.363Z,8.68
2016-10-25T05:40:33.623Z,8.64
2016-10-25T05:41:33.410Z,8.68
2016-10-25T05:42:33.375Z,8.71
2016-10-25T05:43:33.395Z,8.65
2016-10-25T05:44:33.440Z,8.67
2016-10-25T05:45:33.287Z,8.62
2016-10-25T05:46:33.417Z,8.68
2016-10-25T05:47:33.399Z,8.62
2016-10-25T05:48:33.332Z,8.65
2016-10-25T05:49:33.296Z,8.69
2016-10-25T05:50:33.418Z,8.62
2016-10-25T05:51:33.366Z,8.68
2016-10-25T05:52:33.397Z,8.64
2016-10-25T05:53:33.530Z,8.72
2016-10-25T05:54:33.438Z,8.68
2016-10-25T05:55:33.372Z,8.65
2016-10-25T05:56:33.538Z,8.69
2016-10-25T05:57:33.369Z,8.6
2016-10-25T05:58:33.292Z,8.65
2016-10-25T05:59:33.435Z,8.69
2016-10-25T06:00:33.416Z,8.71
2016-10-25T06:01:33.457Z,8.65
2016-10-25T06:02:33.463Z,8.77
2016-10-25T06:03:33.410Z,8.67
2016-10-25T06:04:33.445Z,8.76
2016-10-25T06:05:33.469Z,8.72
2016-10-25T06:06:33.449Z,8.77
2016-10-25T06:07:33.543Z,8.69
2016-10-25T06:08:33.526Z,8.69
2016-10-25T06:09:33.647Z,8.68
2016-10-25T06:10:33.479Z,8.69
2016-10-25T06:11:33.533Z,8.65
2016-10-25T06:12:33.649Z,8.71
2016-10-25T06:13:33.452Z,8.76
2016-10-25T06:14:33.528Z,8.71
2016-10-25T06:15:33.385Z,8.69
2016-10-25T06:16:33.508Z,8.71
2016-10-25T06:17:33.501Z,8.76
2016-10-25T06:18:33.535Z,8.71
2016-10-25T06:19:33.540Z,8.8
2016-10-25T06:20:33.411Z,8.82
2016-10-25T06:21:33.529Z,8.82
2016-10-25T06:22:33.463Z,8.71
2016-10-25T06:23:33.461Z,8.8
2016-10-25T06:24:33.454Z,8.76
2016-10-25T06:25:33.406Z,8.76
2016-10-25T06:26:33.491Z,8.76
2016-10-25T06:27:33.481Z,8.72
2016-10-25T06:28:33.549Z,8.71
2016-10-25T06:29:33.845Z,8.72
2016-10-25T06:30:33.441Z,8.76
2016-10-25T06:31:33.489Z,8.76
2016-10-25T06:32:33.437Z,8.77
2016-10-25T06:33:33.579Z,8.86
2016-10-25T06:34:33.420Z,8.83
2016-10-25T06:35:33.540Z,8.86
2016-10-25T06:36:33.644Z,8.89
2016-10-25T06:37:33.594Z,8.9
2016-10-25T06:38:33.560Z,8.87
2016-10-25T06:39:33.649Z,8.92
2016-10-25T06:40:33.556Z,8.95
2016-10-25T06:41:33.574Z,8.85
2016-10-25T06:42:33.556Z,8.92
2016-10-25T06:43:33.552Z,8.94
2016-10-25T06:44:33.908Z,8.97
2016-10-25T06:45:33.479Z,8.83
2016-10-25T06:46:33.539Z,8.89
2016-10-25T06:47:33.509Z,8.77
2016-10-25T06:48:33.571Z,8.89
2016-10-25T06:49:33.643Z,8.77
2016-10-25T06:50:33.501Z,8.85
2016-10-25T06:51:33.559Z,8.86
2016-10-25T06:52:33.530Z,8.83
2016-10-25T06:53:33.536Z,8.83
2016-10-25T06:54:33.488Z,8.85
2016-10-25T06:55:33.556Z,8.79
2016-10-25T06:56:33.556Z,8.77
2016-10-25T06:57:33.506Z,8.87
2016-10-25T06:58:33.602Z,8.8
2016-10-25T06:59:33.650Z,8.77
2016-10-25T07:00:33.680Z,8.87
2016-10-25T07:01:33.518Z,8.79
2016-10-25T07:02:33.635Z,8.82
2016-10-25T07:03:33.491Z,8.8
2016-10-25T07:04:33.769Z,8.87
2016-10-25T07:05:33.710Z,8.79
2016-10-25T07:06:33.653Z,8.86
2016-10-25T07:07:33.778Z,8.83
2016-10-25T07:08:33.608Z,8.87
2016-10-25T07:09:33.541Z,8.9
2016-10-25T07:10:33.634Z,8.9
2016-10-25T07:11:33.632Z,8.98
2016-10-25T07:12:33.619Z,8.9
2016-10-25T07:13:33.588Z,8.9
2016-10-25T07:14:33.635Z,8.92
2016-10-25T07:15:33.687Z,8.95
2016-10-25T07:16:33.949Z,8.94
2016-10-25T07:17:33.660Z,9.01
2016-10-25T07:18:33.731Z,9.01
2016-10-25T07:19:33.708Z,8.95
2016-10-25T07:20:33.704Z,8.94
2016-10-25T07:21:33.705Z,8.94
2016-10-25T07:22:33.638Z,8.92
2016-10-25T07:23:33.863Z,8.94
2016-10-25T07:24:33.761Z,8.92
2016-10-25T07:25:33.627Z,8.97
2016-10-25T07:26:33.660Z,8.98
2016-10-25T07:27:33.662Z,8.94
2016-10-25T07:28:33.731Z,8.95
2016-10-25T07:29:33.786Z,8.85
2016-10-25T07:30:33.694Z,8.9
2016-10-25T07:31:33.734Z,8.9
2016-10-25T07:32:33.964Z,8.89
2016-10-25T07:33:33.692Z,8.92
2016-10-25T07:34:33.734Z,8.85
2016-10-25T07:35:33.797Z,8.92
2016-10-25T07:36:33.783Z,8.95
2016-10-25T07:37:33.714Z,8.87
2016-10-25T07:38:33.687Z,8.97
2016-10-25T07:39:33.743Z,8.92
2016-10-25T07:40:33.764Z,8.95
2016-10-25T07:41:33.674Z,8.87
2016-10-25T07:42:33.871Z,8.9
2016-10-25T07:43:33.785Z,8.92
2016-10-25T07:44:34.112Z,8.87
2016-10-25T07:45:33.753Z,8.95
2016-10-25T07:46:33.812Z,8.92
2016-10-25T07:47:33.879Z,8.9
2016-10-25T07:48:33.806Z,8.94
2016-10-25T07:49:33.853Z,8.89
2016-10-25T07:50:33.745Z,8.94
2016-10-25T07:51:33.695Z,9.03
2016-10-25T07:52:33.803Z,8.92
2016-10-25T07:53:34.064Z,8.92
2016-10-25T07:54:33.714Z,8.92
2016-10-25T07:55:33.741Z,8.95
2016-10-25T07:56:33.882Z,8.97
2016-10-25T07:57:33.817Z,8.94
2016-10-25T07:58:33.817Z,8.95
2016-10-25T07:59:33.772Z,8.95
2016-10-25T08:00:33.862Z,8.95
2016-10-25T08:01:33.717Z,8.97
2016-10-25T08:02:33.903Z,8.89
2016-10-25T08:03:33.798Z,8.94
2016-10-25T08:04:34.047Z,8.98
2016-10-25T08:05:50.153Z,8.94
2016-10-25T08:06:33.929Z,9.01
2016-10-25T08:07:36.118Z,9
2016-10-25T08:08:33.933Z,9.01
2016-10-25T08:09:33.979Z,9.09
2016-10-25T08:10:42.756Z,8.95
2016-10-25T08:11:33.833Z,8.95
2016-10-25T08:12:45.227Z,9
2016-10-25T08:13:36.010Z,8.9
2016-10-25T08:14:33.888Z,8.95
2016-10-25T08:15:34.007Z,8.92
2016-10-25T08:16:33.886Z,8.9
2016-10-25T08:17:33.877Z,8.94
2016-10-25T08:18:33.785Z,8.94
2016-10-25T08:19:33.918Z,8.86
2016-10-25T08:20:33.926Z,8.87
2016-10-25T08:21:34.178Z,8.98
2016-10-25T08:22:33.922Z,8.95
2016-10-25T08:23:33.843Z,9.03
2016-10-25T08:24:34.429Z,9.01
2016-10-25T08:25:33.968Z,9.01
2016-10-25T08:26:34.495Z,8.95
2016-10-25T08:27:33.942Z,8.94
2016-10-25T08:28:33.889Z,8.92
2016-10-25T08:29:33.954Z,8.95
2016-10-25T08:30:33.940Z,8.92
2016-10-25T08:31:34.016Z,8.98
2016-10-25T08:32:33.821Z,9
2016-10-25T08:33:33.971Z,9.01
2016-10-25T08:34:34.004Z,9.01
2016-10-25T08:35:33.790Z,8.98
2016-10-25T08:36:34.316Z,9.01
2016-10-25T08:37:34.099Z,9.09
2016-10-25T08:38:33.933Z,9.05
2016-10-25T08:39:33.992Z,9.05
2016-10-25T08:40:33.858Z,8.97
2016-10-25T08:41:33.832Z,9.01
2016-10-25T08:42:34.175Z,9.11
2016-10-25T08:43:34.012Z,9.08
2016-10-25T08:44:34.024Z,9
2016-10-25T08:45:33.973Z,8.98
2016-10-25T08:46:33.986Z,9.11
2016-10-25T08:47:33.955Z,9.16
2016-10-25T08:48:33.884Z,9.04
2016-10-25T08:49:33.847Z,9.11
2016-10-25T08:50:33.863Z,9.04
2016-10-25T08:51:33.880Z,9.09
2016-10-25T08:52:34.052Z,9.14
2016-10-25T08:53:33.928Z,9.11
2016-10-25T08:54:34.056Z,9.16
2016-10-25T08:55:34.015Z,9.14
2016-10-25T08:56:34.024Z,9.23
2016-10-25T08:57:33.960Z,9.23
2016-10-25T08:58:33.902Z,9.21
2016-10-25T08:59:34.115Z,9.16
2016-10-25T09:00:34.200Z,9.24
2016-10-25T09:01:34.129Z,9.23
2016-10-25T09:02:33.972Z,9.32
2016-10-25T09:03:33.994Z,9.2
2016-10-25T09:04:34.009Z,9.35
2016-10-25T09:05:34.065Z,9.26
2016-10-25T09:06:33.947Z,9.2
2016-10-25T09:07:33.941Z,9.29
2016-10-25T09:08:34.707Z,9.21
2016-10-25T09:09:33.915Z,9.24
2016-10-25T09:10:33.837Z,9.27
2016-10-25T09:11:35.500Z,9.26
2016-10-25T09:12:33.860Z,9.29
2016-10-25T09:13:34.427Z,9.42
2016-10-25T09:14:33.962Z,9.44
2016-10-25T09:15:34.127Z,9.45
2016-10-25T09:16:34.115Z,9.38
2016-10-25T09:17:33.985Z,9.42
2016-10-25T09:18:34.034Z,9.32
2016-10-25T09:19:34.098Z,9.37
2016-10-25T09:20:34.150Z,9.3
2016-10-25T09:21:33.982Z,9.38
2016-10-25T09:22:34.106Z,9.38
2016-10-25T09:23:34.743Z,9.41
2016-10-25T09:24:34.242Z,9.41
2016-10-25T09:25:34.948Z,9.44
2016-10-25T09:26:34.106Z,9.44
2016-10-25T09:27:34.244Z,9.45
2016-10-25T09:28:34.041Z,9.37
2016-10-25T09:29:34.073Z,9.27
2016-10-25T09:30:34.599Z,9.34
2016-10-25T09:31:34.258Z,9.26
2016-10-25T09:32:34.121Z,9.41
2016-10-25T09:33:34.204Z,9.41
2016-10-25T09:34:34.303Z,9.47
2016-10-25T09:35:33.975Z,9.42
2016-10-25T09:36:35.525Z,9.47
2016-10-25T09:37:33.958Z,9.35
2016-10-25T09:38:34.010Z,9.41
2016-10-25T09:39:34.016Z,9.37
2016-10-25T09:40:34.181Z,9.3
2016-10-25T09:41:34.043Z,9.24
2016-10-25T09:42:34.081Z,9.24
2016-10-25T09:43:34.728Z,9.27
2016-10-25T09:44:34.045Z,9.38
2016-10-25T09:45:34.224Z,9.47
2016-10-25T09:46:34.506Z,9.44
2016-10-25T09:47:34.296Z,9.47
2016-10-25T09:48:34.281Z,9.42
2016-10-25T09:49:34.113Z,9.47
2016-10-25T09:50:34.076Z,9.45
2016-10-25T09:51:34.018Z,9.44
2016-10-25T09:52:34.115Z,9.48
2016-10-25T09:53:34.095Z,9.38
2016-10-25T09:54:34.079Z,9.41
2016-10-25T09:55:34.080Z,9.37
2016-10-25T09:56:34.304Z,9.42
2016-10-25T09:57:34.069Z,9.44
2016-10-25T09:58:34.116Z,9.39
2016-10-25T09:59:34.240Z,9.44
2016-10-25T10:00:34.160Z,9.5
2016-10-25T10:01:34.161Z,9.5
2016-10-25T10:02:34.085Z,9.45
2016-10-25T10:03:34.042Z,9.42
2016-10-25T10:04:34.246Z,9.47
2016-10-25T10:05:34.109Z,9.55
2016-10-25T10:06:34.238Z,9.47
2016-10-25T10:07:34.523Z,9.48
2016-10-25T10:08:34.061Z,9.44
2016-10-25T10:09:34.293Z,9.56
2016-10-25T10:10:34.175Z,9.62
2016-10-25T10:11:34.171Z,9.62
2016-10-25T10:12:34.402Z,9.48
2016-10-25T10:13:34.168Z,9.42
2016-10-25T10:14:34.138Z,9.45
2016-10-25T10:15:34.141Z,9.47
2016-10-25T10:16:34.209Z,9.5
2016-10-25T10:17:35.149Z,9.45
2016-10-25T10:18:34.170Z,9.41
2016-10-25T10:19:34.108Z,9.5
2016-10-25T10:20:34.157Z,9.47
2016-10-25T10:21:34.140Z,9.47
2016-10-25T10:22:34.329Z,9.42
2016-10-25T10:23:34.375Z,9.41
2016-10-25T10:24:34.212Z,9.39
2016-10-25T10:25:34.166Z,9.55
2016-10-25T10:26:34.159Z,9.5
2016-10-25T10:27:34.180Z,9.62
2016-10-25T10:28:34.332Z,9.67
2016-10-25T10:29:34.086Z,9.66
2016-10-25T10:30:34.164Z,9.81
2016-10-25T10:31:34.145Z,9.81
2016-10-25T10:32:34.222Z,9.75
2016-10-25T10:33:34.203Z,9.85
2016-10-25T10:34:34.180Z,9.78
2016-10-25T10:35:34.199Z,9.71
2016-10-25T10:36:34.168Z,9.84
2016-10-25T10:37:34.258Z,9.74
2016-10-25T10:38:34.172Z,9.77
2016-10-25T10:39:34.229Z,9.7
2016-10-25T10:40:34.248Z,9.71
2016-10-25T10:41:34.266Z,9.75
2016-10-25T10:42:34.282Z,9.92
2016-10-25T10:43:34.204Z,9.88
2016-10-25T10:44:34.372Z,9.82
2016-10-25T10:45:34.253Z,9.85
2016-10-25T10:46:34.361Z,9.78
2016-10-25T10:47:34.416Z,9.88
2016-10-25T10:48:34.238Z,9.71
2016-10-25T10:49:36.166Z,9.88
2016-10-25T10:50:34.171Z,9.81
2016-10-25T10:51:34.243Z,9.75
2016-10-25T10:52:34.322Z,9.74
2016-10-25T10:53:34.257Z,9.74
2016-10-25T10:54:34.168Z,9.8
2016-10-25T10:55:34.226Z,9.63
2016-10-25T10:56:34.360Z,9.59
2016-10-25T10:57:34.311Z,9.71
2016-10-25T10:58:34.176Z,9.66
2016-10-25T10:59:34.174Z,9.66
2016-10-25T11:00:34.438Z,9.63
2016-10-25T11:01:34.310Z,9.52
2016-10-25T11:02:34.276Z,9.62
2016-10-25T11:03:34.227Z,9.55
2016-10-25T11:04:34.220Z,9.55
2016-10-25T11:05:34.196Z,9.59
2016-10-25T11:06:34.334Z,9.5
2016-10-25T11:07:34.361Z,9.47
2016-10-25T11:08:34.296Z,9.55
2016-10-25T11:09:34.338Z,9.47
2016-10-25T11:10:34.392Z,9.48
2016-10-25T11:11:34.389Z,9.6
2016-10-25T11:12:34.384Z,9.45
2016-10-25T11:13:34.349Z,9.52
2016-10-25T11:14:34.199Z,9.52
2016-10-25T11:15:34.250Z,9.53
2016-10-25T11:16:34.716Z,9.39
2016-10-25T11:17:34.217Z,9.53
2016-10-25T11:18:35.061Z,9.55
2016-10-25T11:19:34.349Z,9.55
2016-10-25T11:20:34.332Z,9.6
2016-10-25T11:21:34.371Z,9.53
2016-10-25T11:22:34.378Z,9.56
2016-10-25T11:23:34.372Z,9.47
2016-10-25T11:24:34.412Z,9.52
2016-10-25T11:25:34.428Z,9.48
2016-10-25T11:26:34.563Z,9.35
2016-10-25T11:27:34.562Z,9.47
2016-10-25T11:28:35.176Z,9.62
2016-10-25T11:29:34.469Z,9.63
2016-10-25T11:30:34.330Z,9.62
2016-10-25T11:31:34.315Z,9.56
2016-10-25T11:32:34.395Z,9.5
2016-10-25T11:33:34.419Z,9.42
2016-10-25T11:34:34.389Z,9.59
2016-10-25T11:35:34.392Z,9.67
2016-10-25T11:36:34.495Z,9.66
2016-10-25T11:37:34.408Z,9.7
2016-10-25T11:38:34.293Z,9.64
2016-10-25T11:39:35.242Z,9.64
2016-10-25T11:40:34.455Z,9.67
2016-10-25T11:41:34.564Z,9.59
2016-10-25T11:42:34.284Z,9.59
2016-10-25T11:43:34.452Z,9.59
2016-10-25T11:44:34.460Z,9.67
2016-10-25T11:45:34.601Z,9.74
2016-10-25T11:46:34.468Z,9.82
2016-10-25T11:47:34.470Z,9.77
2016-10-25T11:48:34.657Z,9.82
2016-10-25T11:49:34.511Z,9.78
2016-10-25T11:50:34.404Z,9.92
2016-10-25T11:51:34.480Z,9.98
2016-10-25T11:52:34.532Z,9.96
2016-10-25T11:53:35.209Z,10.07
2016-10-25T11:54:34.516Z,10.1
2016-10-25T11:55:34.454Z,10.03
2016-10-25T11:56:34.506Z,10.08
2016-10-25T11:57:34.529Z,9.95
2016-10-25T11:58:34.478Z,9.93
2016-10-25T11:59:34.665Z,9.84
2016-10-25T12:00:34.347Z,9.85
2016-10-25T12:01:34.421Z,9.96
2016-10-25T12:02:34.529Z,9.84
2016-10-25T12:03:34.497Z,9.9
2016-10-25T12:04:35.847Z,9.85
2016-10-25T12:05:34.743Z,9.82
2016-10-25T12:06:34.455Z,9.98
2016-10-25T12:07:34.421Z,9.95
2016-10-25T12:08:34.426Z,10.02
2016-10-25T12:09:34.499Z,9.95
2016-10-25T12:10:34.468Z,10.05
2016-10-25T12:11:34.606Z,10.08
2016-10-25T12:12:34.661Z,10.07
2016-10-25T12:13:34.454Z,10.1
2016-10-25T12:14:35.231Z,9.98
2016-10-25T12:15:34.549Z,9.96
2016-10-25T12:16:34.606Z,9.96
2016-10-25T12:17:34.523Z,9.92
2016-10-25T12:18:34.530Z,9.96
2016-10-25T12:19:34.487Z,9.82
2016-10-25T12:20:34.600Z,9.78
2016-10-25T12:21:34.431Z,9.78
2016-10-25T12:22:34.482Z,9.8
2016-10-25T12:23:34.437Z,9.64
2016-10-25T12:24:34.715Z,9.72
2016-10-25T12:25:34.522Z,9.59
2016-10-25T12:26:34.510Z,9.64
2016-10-25T12:27:34.573Z,9.6
2016-10-25T12:28:34.572Z,9.67
2016-10-25T12:29:34.709Z,9.59
2016-10-25T12:30:34.589Z,9.62
2016-10-25T12:31:34.567Z,9.64
2016-10-25T12:32:34.543Z,9.57
2016-10-25T12:33:35.387Z,9.62
2016-10-25T12:34:34.574Z,9.66
2016-10-25T12:35:34.569Z,9.62
2016-10-25T12:36:35.353Z,9.75
2016-10-25T12:37:34.578Z,9.66
2016-10-25T12:38:35.263Z,9.75
2016-10-25T12:39:34.686Z,9.77
2016-10-25T12:40:34.541Z,9.81
2016-10-25T12:41:34.631Z,9.77
2016-10-25T12:42:34.561Z,9.78
2016-10-25T12:43:34.768Z,9.8
2016-10-25T12:44:34.613Z,9.92
2016-10-25T12:45:34.557Z,9.88
2016-10-25T12:46:34.593Z,9.88
2016-10-25T12:47:34.621Z,9.89
2016-10-25T12:48:34.697Z,9.85
2016-10-25T12:49:34.589Z,9.92
2016-10-25T12:50:34.589Z,10
2016-10-25T12:51:34.568Z,9.98
2016-10-25T12:52:34.636Z,9.96
2016-10-25T12:53:34.632Z,9.99
2016-10-25T12:54:34.518Z,10.02
2016-10-25T12:55:34.667Z,10
2016-10-25T12:56:34.615Z,9.92
2016-10-25T12:57:34.682Z,9.98
2016-10-25T12:58:35.257Z,9.84
2016-10-25T12:59:34.813Z,9.89
2016-10-25T13:00:34.577Z,9.93
2016-10-25T13:01:34.664Z,9.89
2016-10-25T13:02:34.607Z,9.89
2016-10-25T13:03:34.652Z,9.88
2016-10-25T13:04:34.650Z,9.82
2016-10-25T13:05:34.749Z,9.85
2016-10-25T13:06:34.658Z,9.92
2016-10-25T13:07:34.724Z,9.88
2016-10-25T13:08:34.684Z,9.84
2016-10-25T13:09:34.627Z,9.82
2016-10-25T13:10:34.749Z,9.72
2016-10-25T13:11:34.638Z,9.77
2016-10-25T13:12:34.772Z,9.84
2016-10-25T13:13:34.586Z,9.88
2016-10-25T13:14:34.700Z,9.85
2016-10-25T13:15:34.716Z,9.92
2016-10-25T13:16:34.637Z,9.93
2016-10-25T13:17:34.695Z,9.84
2016-10-25T13:18:34.714Z,9.85
2016-10-25T13:19:34.539Z,9.93
2016-10-25T13:20:34.635Z,9.95
2016-10-25T13:21:34.612Z,9.9